Airfield :
LOGIN :

Register | Disclaimer

   EN    FR    IT 

 










Legend :    VFR   Marginal VFR   IFR   Intensive IFR   Very Intensive IFR
Visi :
Ceiling :
>= 8 km
>= 3000ft
5 to 8 km
1000 to 3000 ft
1500m to 5 km
500 to 1000 ft
800 to 1500m
200 to 500 ft
< 800m
< 200 ft
Symbols :   Thunderstorms  Fog  Heavy snow  Heavy precipitations  Wind > 20 kt
SIGMETs :     Misc.  Thunderstorms  Icing  Turbulence  Mountain Waves  Volcanic Ashes






- Airport Elevation : 1455 ft


ETIH - Hohenfels Army Air Field

EXPIRED METARs :
  • 211355Z AUTO 00000KT 9999 -DZ BKN024 18/15 A2967 RMK AO2 RAE23DZB23E28RAB53E54DZB54 BKN V SCT SLP048 P0001 T01750153 $
  • 211328Z AUTO 24005KT 9999 FEW029 SCT035 BKN095 18/16 A2967 RMK AO2 RAE23DZB23E28 SLP048 $
  • 211255Z AUTO 19003KT 9999 -RA SCT038 BKN049 20/16 A2967 RMK AO2 DZB38E50RAB50 SLP047 P0000 T01980156 $
  • 211238Z AUTO 05004KT 9999 DZ FEW034 FEW044 BKN055 BKN070 21/14 A2966 RMK AO2 DZB38 SLP042 $
  • 211155Z AUTO 06005KT 9999 BKN060 21/14 A2968 RMK AO2 SLP048 60000 T02070136 10207 20132 55007

Expired Forecast.



MET'MAP, your aeronautical weather chart ! - Copyright ORBIFLY December 2007 - Disclaimer

ORBIFLY MET'MAP TEAM :

Programming & Development : Alexandra Zaïnal
Original concept : Baudouin d'Aumeries
Technical & hardware support : Manuel Goepfert
Assistance : Marc-Olivier Méhu




SOURCES & CREDITS :

   NOAA